Time;durP1;ratioP1;P1;durP2;ratioP2;P2;SDS_P1;SDS_P2;PMS_P1;PMS_P2;Temp;Humidity;BMP_temperature;BMP_pressure;BME280_temperature;BME280_humidity;BME280_pressure;Samples;Min_cycle;Max_cycle;Signal;HPM_P1;HPM_P2
2023/04/08 00:00:31;;;;;;;17.13;12.60;;;;;;;7.57;100.00;102226.09;5130790;28;20047;-35
2023/04/08 00:02:56;;;;;;;15.53;12.10;;;;;;;7.67;100.00;102251.75;5130599;28;20368;-35
2023/04/08 00:05:21;;;;;;;18.47;12.40;;;;;;;7.69;100.00;102248.88;5130912;27;20314;-35
2023/04/08 00:07:47;;;;;;;19.45;12.88;;;;;;;7.70;100.00;102242.47;5131634;27;20023;-35
2023/04/08 00:10:12;;;;;;;18.50;12.82;;;;;;;7.64;100.00;102227.03;5130855;27;20023;-35
2023/04/08 00:12:38;;;;;;;24.17;13.80;;;;;;;7.72;100.00;102245.84;5121831;28;20024;-35
2023/04/08 00:15:04;;;;;;;20.17;13.60;;;;;;;7.72;100.00;102246.69;5117285;28;20374;-35
2023/04/08 00:17:29;;;;;;;28.23;15.80;;;;;;;7.67;100.00;102243.69;5117512;28;20094;-36
2023/04/08 00:19:55;;;;;;;21.95;14.20;;;;;;;7.71;100.00;102247.69;5116881;28;20045;-36
2023/04/08 00:22:20;;;;;;;21.85;14.82;;;;;;;7.73;100.00;102242.97;5116850;28;20020;-36
2023/04/08 00:24:46;;;;;;;24.67;16.13;;;;;;;7.73;100.00;102244.81;5116722;28;20031;-35
2023/04/08 00:27:11;;;;;;;24.07;16.03;;;;;;;7.66;100.00;102235.75;5117052;28;20031;-35
2023/04/08 00:29:36;;;;;;;22.77;16.33;;;;;;;7.76;100.00;102247.16;5117082;28;20118;-35
2023/04/08 00:32:02;;;;;;;23.00;16.13;;;;;;;7.73;100.00;102240.25;5116998;28;20394;-35
2023/04/08 00:34:28;;;;;;;23.17;15.98;;;;;;;7.76;100.00;102247.16;5117515;28;20019;-35
2023/04/08 00:36:53;;;;;;;24.40;16.87;;;;;;;7.74;100.00;102249.19;5116656;28;20515;-36
2023/04/08 00:39:19;;;;;;;22.73;16.80;;;;;;;7.67;100.00;102237.47;5116779;28;20300;-36
2023/04/08 00:41:44;;;;;;;23.88;17.38;;;;;;;7.69;100.00;102238.94;5115547;28;20026;-36
2023/04/08 00:44:10;;;;;;;27.15;18.00;;;;;;;7.72;100.00;102243.16;5116139;28;20023;-36
2023/04/08 00:46:38;;;;;;;23.90;16.42;;;;;;;7.77;100.00;102254.22;5117026;28;20034;-36
2023/04/08 00:49:04;;;;;;;23.58;16.73;;;;;;;7.79;100.00;102259.41;5116338;28;20084;-36
2023/04/08 00:51:30;;;;;;;26.60;17.88;;;;;;;7.78;100.00;102253.19;5116611;28;20527;-36
2023/04/08 00:53:56;;;;;;;24.17;17.23;;;;;;;7.72;100.00;102240.44;5116028;28;20019;-36
2023/04/08 00:56:23;;;;;;;22.75;16.98;;;;;;;7.75;100.00;102249.00;5116317;28;20383;-35
2023/04/08 00:58:50;;;;;;;24.25;18.17;;;;;;;7.79;100.00;102251.34;5115757;28;20389;-35
2023/04/08 01:01:41;;;;;;;27.15;19.10;;;;;;;7.79;100.00;102246.78;5116640;28;20459;-35
2023/04/08 01:04:21;;;;;;;24.77;18.08;;;;;;;7.80;100.00;102259.22;5103865;28;20039;-36
2023/04/08 01:06:57;;;;;;;24.05;16.50;;;;;;;7.74;100.00;102247.31;5116587;28;20120;-36
2023/04/08 01:09:26;;;;;;;27.27;17.85;;;;;;;7.81;100.00;102252.84;5116856;28;20027;-36
2023/04/08 01:11:53;;;;;;;29.55;18.00;;;;;;;7.77;100.00;102254.22;5116496;28;20054;-35
2023/04/08 01:14:26;;;;;;;25.83;17.80;;;;;;;7.72;100.00;102251.22;5115718;28;20447;-35
2023/04/08 01:16:55;;;;;;;28.45;18.38;;;;;;;7.79;100.00;102259.41;5116123;27;20031;-35
2023/04/08 01:19:28;;;;;;;24.45;18.52;;;;;;;7.77;100.00;102259.59;5115516;28;20031;-35
2023/04/08 01:22:14;;;;;;;27.15;18.52;;;;;;;7.78;100.00;102255.06;5116511;28;20028;-35
2023/04/08 01:24:43;;;;;;;26.05;17.95;;;;;;;7.79;100.00;102259.41;5114676;28;20024;-35
2023/04/08 01:27:10;;;;;;;25.52;18.35;;;;;;;7.76;100.00;102260.63;5116471;28;20027;-35
2023/04/08 01:29:36;;;;;;;28.13;19.95;;;;;;;7.75;100.00;102265.16;5115225;28;20076;-35
2023/04/08 01:32:03;;;;;;;27.65;19.55;;;;;;;7.78;100.00;102265.81;5116097;28;20023;-35
2023/04/08 01:34:31;;;;;;;30.10;20.83;;;;;;;7.70;100.00;102255.94;5115765;28;20058;-35
2023/04/08 01:36:57;;;;;;;28.60;20.13;;;;;;;7.74;100.00;102265.34;5115938;28;20517;-35
2023/04/08 01:39:24;;;;;;;26.35;19.85;;;;;;;7.68;100.00;102255.28;5115077;28;20019;-35
2023/04/08 01:41:52;;;;;;;30.80;20.13;;;;;;;7.76;100.00;102268.72;5115296;28;20110;-35
2023/04/08 01:44:20;;;;;;;29.50;19.45;;;;;;;7.77;100.00;102270.38;5114937;28;20019;-35
2023/04/08 01:46:46;;;;;;;28.73;19.45;;;;;;;7.65;100.00;102250.25;5115281;27;20045;-35
2023/04/08 01:49:14;;;;;;;29.77;19.88;;;;;;;7.77;100.00;102280.31;5115136;28;20088;-35
2023/04/08 01:51:40;;;;;;;32.25;20.05;;;;;;;7.74;100.00;102271.56;5115145;28;20526;-35
2023/04/08 01:54:06;;;;;;;29.23;20.45;;;;;;;7.80;100.00;102274.56;5115119;27;20058;-35
2023/04/08 01:56:36;;;;;;;29.10;20.40;;;;;;;7.72;100.00;102262.00;5115071;28;20084;-35
2023/04/08 01:59:06;;;;;;;34.35;21.05;;;;;;;7.77;100.00;102275.75;5114993;28;20027;-35
2023/04/08 02:01:34;;;;;;;26.15;18.92;;;;;;;7.80;100.00;102270.00;5115604;28;20047;-35
2023/04/08 02:04:02;;;;;;;32.47;21.45;;;;;;;7.78;100.00;102272.06;5115216;28;20039;-35
2023/04/08 02:06:28;;;;;;;29.75;19.52;;;;;;;7.81;100.00;102276.22;5115220;28;20023;-35
2023/04/08 02:08:55;;;;;;;28.98;20.08;;;;;;;7.77;100.00;102274.94;5115324;28;20031;-35
2023/04/08 02:11:20;;;;;;;31.70;21.42;;;;;;;7.81;100.00;102278.91;5115077;28;20020;-35
2023/04/08 02:13:46;;;;;;;31.67;21.17;;;;;;;7.78;100.00;102277.44;5114469;28;20020;-35
2023/04/08 02:16:38;;;;;;;29.58;19.20;;;;;;;7.81;100.00;102278.91;5114702;28;20069;-35
2023/04/08 02:19:29;;;;;;;29.92;21.55;;;;;;;7.81;100.00;102282.47;5115475;28;20447;-35
2023/04/08 02:22:01;;;;;;;32.17;21.65;;;;;;;7.77;100.00;102275.75;5114798;28;20420;-35
2023/04/08 02:24:28;;;;;;;27.80;20.60;;;;;;;7.76;100.00;102279.47;5114564;28;20023;-35
2023/04/08 02:26:55;;;;;;;37.03;22.70;;;;;;;7.73;100.00;102282.50;5115073;28;20023;-35
2023/04/08 02:29:21;;;;;;;29.58;22.13;;;;;;;7.75;100.00;102283.16;5114454;28;20054;-35
2023/04/08 02:31:49;;;;;;;29.13;21.42;;;;;;;7.79;100.00;102289.03;5114736;28;20386;-35
2023/04/08 02:34:15;;;;;;;29.38;21.90;;;;;;;7.77;100.00;102288.41;5114149;28;20040;-35
2023/04/08 02:36:44;;;;;;;30.17;22.20;;;;;;;7.77;100.00;102283.84;5114142;28;20015;-34
2023/04/08 02:39:10;;;;;;;36.40;23.42;;;;;;;7.75;100.00;102288.53;5114295;28;20460;-35
2023/04/08 02:41:35;;;;;;;27.83;21.23;;;;;;;7.75;100.00;102285.84;5113933;28;20028;-35
2023/04/08 02:44:01;;;;;;;28.50;21.23;;;;;;;7.72;100.00;102294.31;5114242;28;20059;-35
2023/04/08 02:46:26;;;;;;;30.70;22.17;;;;;;;7.70;100.00;102291.78;5114858;28;20080;-35
2023/04/08 02:48:52;;;;;;;28.23;19.77;;;;;;;7.71;100.00;102290.78;5114249;28;20303;-35
2023/04/08 02:51:17;;;;;;;29.08;21.95;;;;;;;7.69;100.00;102300.88;5115085;28;20049;-35
2023/04/08 02:53:43;;;;;;;28.93;22.00;;;;;;;7.68;100.00;102295.66;5114105;28;20023;-35
2023/04/08 02:56:11;;;;;;;29.83;21.97;;;;;;;7.67;100.00;102302.06;5114450;28;20023;-35
2023/04/08 02:58:37;;;;;;;28.67;21.90;;;;;;;7.63;100.00;102301.59;5114955;28;20027;-35
2023/04/08 03:01:02;;;;;;;32.67;22.35;;;;;;;7.65;100.00;102294.16;5114889;28;20467;-35
2023/04/08 03:03:28;;;;;;;31.20;22.10;;;;;;;7.62;100.00;102293.69;5114104;28;20034;-34
2023/04/08 03:05:57;;;;;;;27.20;20.25;;;;;;;7.61;100.00;102300.94;5114059;28;20575;-35
2023/04/08 03:08:22;;;;;;;29.90;21.80;;;;;;;7.62;100.00;102296.38;5113975;28;20049;-35
2023/04/08 03:10:48;;;;;;;31.58;23.10;;;;;;;7.60;100.00;102295.69;5113781;28;20514;-35
2023/04/08 03:13:15;;;;;;;32.35;21.92;;;;;;;7.44;100.00;102275.94;5114226;28;20405;-35
2023/04/08 03:15:41;;;;;;;31.10;22.05;;;;;;;7.52;100.00;102293.91;5114323;28;20099;-34
2023/04/08 03:18:06;;;;;;;30.77;22.30;;;;;;;7.44;100.00;102285.84;5113919;28;20116;-34
2023/04/08 03:20:32;;;;;;;33.30;21.65;;;;;;;7.44;100.00;102300.16;5114158;28;20027;-35
2023/04/08 03:22:57;;;;;;;30.73;20.47;;;;;;;7.35;100.00;102292.28;5114138;28;20452;-35
2023/04/08 03:25:22;;;;;;;25.93;20.03;;;;;;;7.39;100.00;102297.16;5113566;28;20012;-35
2023/04/08 03:27:48;;;;;;;31.63;20.03;;;;;;;7.35;100.00;102289.59;5113866;28;20055;-35
2023/04/08 03:30:13;;;;;;;30.27;19.97;;;;;;;7.29;100.00;102293.00;5114479;28;20032;-35
2023/04/08 03:32:38;;;;;;;29.10;20.07;;;;;;;7.32;100.00;102296.19;5113848;28;20026;-34
2023/04/08 03:35:05;;;;;;;29.03;19.77;;;;;;;7.31;100.00;102289.09;5114118;28;20257;-34
2023/04/08 03:37:30;;;;;;;;;;;;;;;7.37;100.00;102293.81;5114146;28;20024;-34
2023/04/08 03:39:55;;;;;;;33.40;20.52;;;;;;;7.17;100.00;102282.63;5114500;28;19925;-34
2023/04/08 03:42:21;;;;;;;33.07;21.47;;;;;;;7.18;100.00;102299.59;5114498;28;20024;-35
2023/04/08 03:44:46;;;;;;;29.52;20.42;;;;;;;7.15;100.00;102295.38;5113983;28;20012;-34
2023/04/08 03:47:11;;;;;;;26.43;20.73;;;;;;;7.08;100.00;102302.47;5114931;28;20367;-35
2023/04/08 03:49:37;;;;;;;31.27;21.50;;;;;;;7.02;100.00;102297.75;5118485;28;20023;-34
2023/04/08 03:52:02;;;;;;;32.10;23.30;;;;;;;7.05;100.00;102312.72;5117541;28;20024;-34
2023/04/08 03:54:28;;;;;;;28.27;21.30;;;;;;;6.92;100.00;102297.94;5117854;28;20027;-35
2023/04/08 03:56:54;;;;;;;33.53;22.07;;;;;;;6.99;100.00;102318.81;5118057;28;20444;-36
2023/04/08 03:59:19;;;;;;;28.20;21.42;;;;;;;7.00;100.00;102312.41;5117053;28;20023;-35
2023/04/08 04:01:45;;;;;;;29.25;21.05;;;;;;;7.00;100.00;102313.25;5117625;28;20092;-35
2023/04/08 04:04:10;;;;;;;27.15;20.50;;;;;;;6.92;100.00;102306.03;5117319;28;20031;-35
2023/04/08 04:06:36;;;;;;;27.33;20.03;;;;;;;7.00;100.00;102315.09;5117805;28;20102;-35
2023/04/08 04:09:02;;;;;;;27.05;20.75;;;;;;;7.00;100.00;102320.47;5117438;28;20459;-35
2023/04/08 04:11:27;;;;;;;31.23;21.43;;;;;;;7.00;100.00;102309.72;5117158;28;20023;-35
2023/04/08 04:13:52;;;;;;;26.30;20.80;;;;;;;6.99;100.00;102314.25;5116822;28;20314;-36
2023/04/08 04:16:18;;;;;;;34.00;21.53;;;;;;;7.00;100.00;102310.56;5117915;28;20027;-35
2023/04/08 04:18:43;;;;;;;28.67;19.10;;;;;;;7.02;100.00;102313.06;5117018;28;20019;-35
2023/04/08 04:21:09;;;;;;;32.75;20.98;;;;;;;7.06;100.00;102323.31;5117459;28;20073;-35
2023/04/08 04:23:34;;;;;;;29.58;22.00;;;;;;;7.03;100.00;102315.59;5116961;28;20375;-35
2023/04/08 04:26:00;;;;;;;28.23;22.27;;;;;;;7.09;100.00;102317.59;5117442;28;20410;-35
2023/04/08 04:28:25;;;;;;;32.85;23.10;;;;;;;7.15;100.00;102332.22;5116869;28;20129;-35
2023/04/08 04:30:50;;;;;;;34.10;24.33;;;;;;;7.11;100.00;102326.31;5117337;28;20455;-35
2023/04/08 04:33:16;;;;;;;36.80;23.00;;;;;;;7.16;100.00;102341.94;5116704;28;20019;-35
2023/04/08 04:35:41;;;;;;;32.80;23.70;;;;;;;7.16;100.00;102348.16;5116491;28;20494;-36
2023/04/08 04:38:11;;;;;;;31.73;23.27;;;;;;;7.14;100.00;102349.38;5116593;28;20367;-35
2023/04/08 04:40:38;;;;;;;40.88;23.25;;;;;;;7.15;100.00;102348.34;5117381;28;20341;-35
2023/04/08 04:43:04;;;;;;;35.65;22.17;;;;;;;7.16;100.00;102358.94;5116802;28;20028;-35
2023/04/08 04:45:30;;;;;;;50.25;22.88;;;;;;;7.14;100.00;102360.13;5116800;28;20019;-35
2023/04/08 04:47:55;;;;;;;50.25;24.77;;;;;;;7.12;100.00;102362.13;5116692;28;20447;-35
2023/04/08 04:50:20;;;;;;;67.63;23.13;;;;;;;7.08;100.00;102360.81;5116818;27;20374;-35
2023/04/08 04:52:46;;;;;;;50.47;22.90;;;;;;;7.07;100.00;102357.25;5116320;27;20030;-35
2023/04/08 04:55:12;;;;;;;49.80;22.33;;;;;;;7.04;100.00;102359.47;5116562;28;20032;-35
2023/04/08 04:57:37;;;;;;;58.55;22.55;;;;;;;6.96;100.00;102353.09;5116349;28;20055;-35
2023/04/08 05:00:03;;;;;;;48.13;20.93;;;;;;;7.00;100.00;102367.03;5115892;28;20065;-35
2023/04/08 05:02:28;;;;;;;34.38;20.98;;;;;;;7.03;100.00;102371.22;5117030;27;20032;-35
2023/04/08 05:04:54;;;;;;;43.50;20.40;;;;;;;6.87;100.00;102351.41;5116204;28;20102;-35
2023/04/08 05:07:20;;;;;;;52.33;21.80;;;;;;;6.99;100.00;102377.97;5116281;27;20030;-36
2023/04/08 05:09:46;;;;;;;29.65;20.73;;;;;;;7.02;100.00;102377.63;5116023;28;20063;-35
2023/04/08 05:12:11;;;;;;;26.27;19.83;;;;;;;7.01;100.00;102375.94;5116194;28;20084;-35
2023/04/08 05:14:37;;;;;;;24.83;18.85;;;;;;;6.95;100.00;102378.31;5116500;28;20018;-35
2023/04/08 05:17:02;;;;;;;26.10;19.38;;;;;;;6.97;100.00;102378.97;5115889;28;20435;-35
2023/04/08 05:19:27;;;;;;;24.60;18.90;;;;;;;7.00;100.00;102385.03;5116380;28;20034;-35
2023/04/08 05:21:53;;;;;;;22.83;19.03;;;;;;;6.91;100.00;102371.56;5115770;28;20030;-35
2023/04/08 05:24:18;;;;;;;20.93;18.27;;;;;;;6.97;100.00;102384.34;5115858;28;20027;-35
2023/04/08 05:26:51;;;;;;;20.50;17.47;;;;;;;6.95;100.00;102377.47;5116281;28;20020;-35
2023/04/08 05:29:17;;;;;;;25.30;17.58;;;;;;;6.90;100.00;102386.03;5115972;28;20367;-35
2023/04/08 05:31:42;;;;;;;;;;;;;;;7.03;100.00;102390.06;5116011;28;20375;-35
2023/04/08 05:34:07;;;;;;;19.48;17.17;;;;;;;6.94;100.00;102400.84;5115332;28;19904;-35
2023/04/08 05:36:33;;;;;;;21.17;18.37;;;;;;;6.94;100.00;102392.78;5115236;27;20509;-35
2023/04/08 05:38:58;;;;;;;21.07;17.77;;;;;;;6.82;100.00;102372.59;5116008;28;20030;-35
2023/04/08 05:41:23;;;;;;;24.87;18.47;;;;;;;6.84;100.00;102389.41;5115538;28;20447;-35
2023/04/08 05:43:49;;;;;;;19.10;15.70;;;;;;;6.91;100.00;102398.47;5115324;28;20028;-35
2023/04/08 05:46:14;;;;;;;21.60;18.43;;;;;;;6.91;100.00;102398.47;5116181;28;20020;-35
2023/04/08 05:48:40;;;;;;;19.80;17.70;;;;;;;6.95;100.00;102398.97;5115551;28;20336;-35
2023/04/08 05:51:05;;;;;;;20.90;18.73;;;;;;;6.97;100.00;102403.16;5115202;28;20031;-35
2023/04/08 05:53:31;;;;;;;19.50;17.40;;;;;;;6.97;100.00;102403.16;5114914;28;20027;-35
2023/04/08 05:55:56;;;;;;;22.60;18.10;;;;;;;7.01;100.00;102403.69;5115129;28;20016;-35
2023/04/08 05:58:21;;;;;;;22.27;19.10;;;;;;;7.02;100.00;102412.59;5115115;28;20020;-35
2023/04/08 06:00:47;;;;;;;28.47;20.77;;;;;;;6.96;100.00;102406.88;5115043;28;20047;-35
2023/04/08 06:03:12;;;;;;;28.03;20.23;;;;;;;6.93;100.00;102415.31;5115463;28;20034;-35
2023/04/08 06:05:37;;;;;;;23.97;20.07;;;;;;;6.94;100.00;102416.97;5114943;28;20055;-35
2023/04/08 06:08:03;;;;;;;25.17;20.70;;;;;;;6.91;100.00;102406.53;5114816;28;20065;-35
2023/04/08 06:10:28;;;;;;;25.48;19.33;;;;;;;6.88;100.00;102409.59;5114604;28;20076;-35
2023/04/08 06:12:54;;;;;;;23.10;19.77;;;;;;;6.93;100.00;102415.31;5115058;28;20027;-35
2023/04/08 06:15:20;;;;;;;26.15;20.92;;;;;;;7.00;100.00;102414.63;5114504;28;20023;-35
2023/04/08 06:17:45;;;;;;;21.67;19.20;;;;;;;7.05;100.00;102423.00;5114743;28;20019;-35
2023/04/08 06:20:10;;;;;;;24.33;20.57;;;;;;;7.06;100.00;102428.22;5114727;28;20024;-35
2023/04/08 06:22:37;;;;;;;26.90;20.63;;;;;;;7.10;100.00;102428.72;5114605;28;20024;-36
2023/04/08 06:25:02;;;;;;;25.20;20.67;;;;;;;7.13;100.00;102431.09;5114919;28;20015;-36
2023/04/08 06:27:28;;;;;;;23.45;19.85;;;;;;;7.10;100.00;102417.97;5114559;28;20386;-36
2023/04/08 06:29:54;;;;;;;24.67;20.60;;;;;;;7.19;100.00;102431.25;5114793;28;20024;-36
2023/04/08 06:32:20;;;;;;;24.63;19.88;;;;;;;7.20;100.00;102434.78;5114421;28;20783;-37
2023/04/08 06:34:46;;;;;;;24.92;19.95;;;;;;;7.20;100.00;102435.59;5114719;28;20049;-37
2023/04/08 06:37:11;;;;;;;24.65;20.58;;;;;;;7.26;100.00;102452.06;5114349;28;20118;-35
2023/04/08 06:39:37;;;;;;;25.35;20.63;;;;;;;7.23;100.00;102434.44;5114922;28;20044;-36
2023/04/08 06:42:02;;;;;;;26.40;21.63;;;;;;;7.30;100.00;102448.03;5114289;28;20027;-36
2023/04/08 06:44:28;;;;;;;27.33;22.73;;;;;;;7.23;100.00;102446.03;5115143;28;20015;-35
2023/04/08 06:46:53;;;;;;;26.38;22.35;;;;;;;7.25;100.00;102455.78;5114599;28;20019;-35
2023/04/08 06:49:18;;;;;;;29.07;21.93;;;;;;;7.26;100.00;102452.06;5114274;28;20059;-36
2023/04/08 06:51:44;;;;;;;26.73;21.40;;;;;;;7.33;100.00;102448.56;5114248;28;20383;-36
2023/04/08 06:54:09;;;;;;;26.15;21.10;;;;;;;7.28;100.00;102442.00;5114136;28;20055;-36
2023/04/08 06:56:35;;;;;;;23.47;19.37;;;;;;;7.33;100.00;102462.00;5114795;28;20023;-36
2023/04/08 06:59:01;;;;;;;25.15;20.48;;;;;;;7.35;100.00;102462.66;5114641;28;20028;-36
2023/04/08 07:01:26;;;;;;;24.77;20.93;;;;;;;7.39;100.00;102465.88;5114225;28;20043;-36
2023/04/08 07:03:51;;;;;;;24.03;19.63;;;;;;;7.36;100.00;102466.19;5113795;28;20033;-36
2023/04/08 07:06:17;;;;;;;22.63;19.30;;;;;;;7.25;100.00;102475.47;5114072;28;20069;-36
2023/04/08 07:08:42;;;;;;;24.60;20.40;;;;;;;7.26;100.00;102469.06;5113690;28;20322;-36
2023/04/08 07:11:10;;;;;;;23.63;20.90;;;;;;;7.29;100.00;102484.88;5114284;28;20030;-36
2023/04/08 07:13:35;;;;;;;23.45;19.23;;;;;;;7.20;100.00;102458.97;5114106;28;20041;-36
2023/04/08 07:16:01;;;;;;;22.77;20.30;;;;;;;7.29;100.00;102475.97;5113918;28;20122;-35
2023/04/08 07:18:26;;;;;;;23.67;19.23;;;;;;;7.29;100.00;102475.97;5113586;28;20429;-37
2023/04/08 07:20:56;;;;;;;21.73;19.10;;;;;;;7.37;100.00;102486.72;5114627;28;20482;-36
2023/04/08 07:23:22;;;;;;;23.02;19.45;;;;;;;7.35;100.00;102484.19;5116517;28;20102;-36
2023/04/08 07:25:47;;;;;;;21.60;19.27;;;;;;;7.34;100.00;102490.59;5118522;27;20054;-37
2023/04/08 07:28:13;;;;;;;23.17;19.37;;;;;;;7.31;100.00;102493.63;5117623;28;20049;-36
2023/04/08 07:30:38;;;;;;;20.50;18.20;;;;;;;7.39;100.00;102499.00;5118160;28;20265;-36
2023/04/08 07:33:03;;;;;;;26.33;20.07;;;;;;;7.12;100.00;102502.84;5117530;28;20320;-36
2023/04/08 07:35:30;;;;;;;21.97;18.33;;;;;;;7.10;100.00;102480.69;5117882;28;20022;-37
2023/04/08 07:37:56;;;;;;;25.55;19.75;;;;;;;7.27;100.00;102502.19;5117782;28;20065;-37
2023/04/08 07:40:22;;;;;;;19.77;17.67;;;;;;;7.33;100.00;102507.75;5117727;28;20397;-36
2023/04/08 07:42:48;;;;;;;20.30;18.10;;;;;;;7.37;100.00;102509.09;5117437;28;20031;-36
2023/04/08 07:45:13;;;;;;;19.77;16.90;;;;;;;7.38;100.00;102513.47;5117696;28;20024;-37
2023/04/08 07:47:39;;;;;;;22.00;18.77;;;;;;;7.28;100.00;102511.97;5117661;28;20055;-37
2023/04/08 07:50:05;;;;;;;24.00;18.90;;;;;;;7.26;100.00;102513.97;5117643;27;20074;-37
2023/04/08 07:52:31;;;;;;;26.13;20.42;;;;;;;7.12;100.00;102502.03;5117467;28;20019;-37
2023/04/08 07:54:56;;;;;;;24.83;19.15;;;;;;;7.11;100.00;102497.66;5117517;28;20077;-36
2023/04/08 07:57:22;;;;;;;23.17;20.60;;;;;;;7.06;100.00;102519.69;5117480;28;20154;-36
2023/04/08 07:59:47;;;;;;;21.30;19.00;;;;;;;7.20;100.00;102515.47;5118238;27;20118;-36
2023/04/08 08:02:12;;;;;;;21.40;19.20;;;;;;;7.29;100.00;102521.72;5117729;28;20297;-36
2023/04/08 08:04:38;;;;;;;30.17;19.70;;;;;;;7.32;100.00;102522.22;5117929;28;20028;-36
2023/04/08 08:07:03;;;;;;;20.20;18.03;;;;;;;7.24;100.00;102506.06;5117744;28;20019;-36
2023/04/08 08:09:29;;;;;;;21.60;19.03;;;;;;;7.38;100.00;102526.94;5117769;27;20019;-36
2023/04/08 08:11:54;;;;;;;33.97;19.67;;;;;;;7.39;100.00;102523.22;5117156;28;20041;-36
2023/04/08 08:14:20;;;;;;;21.70;18.42;;;;;;;7.38;100.00;102520.72;5118018;28;20355;-36
2023/04/08 08:16:47;;;;;;;20.58;18.02;;;;;;;7.46;100.00;102534.97;5117650;28;20019;-36
2023/04/08 08:19:13;;;;;;;21.35;17.60;;;;;;;7.37;100.00;102527.94;5116683;28;20480;-36
2023/04/08 08:21:38;;;;;;;;;;;;;;;7.56;100.00;102539.34;5118004;28;20041;-36
2023/04/08 08:24:04;;;;;;;18.38;16.08;;;;;;;7.54;100.00;102546.75;5117197;28;19907;-36
2023/04/08 08:26:29;;;;;;;17.55;15.75;;;;;;;7.56;100.00;102539.34;5117105;28;20111;-36
2023/04/08 08:28:55;;;;;;;16.92;15.13;;;;;;;7.47;100.00;102530.47;5116601;28;20065;-36
2023/04/08 08:31:20;;;;;;;18.77;16.80;;;;;;;7.49;100.00;102531.97;5116828;28;20066;-36
2023/04/08 08:33:46;;;;;;;18.97;16.33;;;;;;;7.54;100.00;102538.69;5116225;28;20363;-36
2023/04/08 08:36:12;;;;;;;18.15;16.33;;;;;;;7.51;100.00;102547.09;5116448;28;20077;-36
2023/04/08 08:38:37;;;;;;;19.20;17.20;;;;;;;7.48;100.00;102545.59;5116372;28;20486;-36
2023/04/08 08:41:03;;;;;;;17.33;15.57;;;;;;;7.53;100.00;102545.09;5116790;28;20106;-36
2023/04/08 08:43:32;;;;;;;16.77;15.07;;;;;;;7.61;100.00;102554.00;5117076;28;20096;-36
2023/04/08 08:45:58;;;;;;;17.27;15.55;;;;;;;7.66;100.00;102558.84;5116850;28;20413;-36
2023/04/08 08:48:24;;;;;;;16.25;14.65;;;;;;;7.56;100.00;102550.13;5116440;28;20027;-36
2023/04/08 08:50:50;;;;;;;16.27;14.77;;;;;;;7.60;100.00;102554.16;5116387;28;20019;-36
2023/04/08 08:53:15;;;;;;;15.05;13.70;;;;;;;7.50;100.00;102554.34;5116659;28;20024;-36
2023/04/08 08:55:41;;;;;;;16.58;14.98;;;;;;;7.50;100.00;102559.72;5116060;28;20429;-36
2023/04/08 08:58:06;;;;;;;15.80;14.30;;;;;;;7.58;100.00;102565.09;5116278;28;20023;-36
2023/04/08 09:00:36;;;;;;;16.00;14.50;;;;;;;7.64;100.00;102563.59;5115959;28;20457;-36
2023/04/08 09:03:26;;;;;;;15.93;14.52;;;;;;;7.78;100.00;102562.91;5116800;28;20043;-36
2023/04/08 09:06:02;;;;;;;16.40;14.80;;;;;;;7.76;100.00;102573.00;5108545;28;20092;-36
2023/04/08 09:08:30;;;;;;;16.15;14.55;;;;;;;7.72;100.00;102571.66;5115819;28;20023;-36
2023/04/08 09:11:13;;;;;;;17.13;15.20;;;;;;;7.86;100.00;102575.53;5116294;28;20035;-36
2023/04/08 09:13:40;;;;;;;15.77;14.27;;;;;;;7.95;100.00;102582.56;5116056;28;20023;-36
2023/04/08 09:16:07;;;;;;;14.50;13.18;;;;;;;8.02;100.00;102580.03;5116743;28;20023;-36
2023/04/08 09:18:34;;;;;;;14.95;13.63;;;;;;;7.96;100.00;102590.47;5115837;28;20061;-45
2023/04/08 09:21:00;;;;;;;15.25;13.80;;;;;;;8.02;100.00;102588.13;5116304;28;20024;-36
2023/04/08 09:23:38;;;;;;;;;;;;;;;8.18;100.00;102580.81;5116167;28;20031;-36
2023/04/08 09:26:09;;;;;;;14.27;12.93;;;;;;;8.08;100.00;102590.13;5116540;28;20246;-36
2023/04/08 09:28:34;;;;;;;14.18;12.88;;;;;;;8.13;100.00;102588.59;5115895;28;20027;-36
2023/04/08 09:31:00;;;;;;;14.82;13.57;;;;;;;8.16;100.00;102593.63;5115302;28;20028;-36
2023/04/08 09:33:31;;;;;;;14.53;13.20;;;;;;;8.09;100.00;102565.69;5115520;28;20047;-36
2023/04/08 09:35:57;;;;;;;14.57;13.27;;;;;;;8.26;100.00;102591.59;5116087;28;20030;-36
2023/04/08 09:38:22;;;;;;;15.90;14.48;;;;;;;8.03;100.00;102573.63;5115403;28;20015;-36
2023/04/08 09:40:48;;;;;;;14.73;13.33;;;;;;;8.19;100.00;102592.44;5115894;28;20016;-36
2023/04/08 09:43:18;;;;;;;14.48;13.13;;;;;;;8.15;100.00;102574.91;5115078;28;20099;-36
2023/04/08 09:45:45;;;;;;;14.75;13.43;;;;;;;8.28;100.00;102586.00;5114793;28;20028;-36
2023/04/08 09:48:23;;;;;;;14.65;13.35;;;;;;;8.34;100.00;102584.47;5114987;28;20024;-36
2023/04/08 09:50:50;;;;;;;15.18;13.77;;;;;;;8.50;100.00;102585.31;5115784;28;20348;-36
2023/04/08 09:53:29;;;;;;;15.32;13.93;;;;;;;8.56;100.00;102594.53;5114850;28;20436;-36
2023/04/08 09:55:56;;;;;;;14.93;13.60;;;;;;;8.38;100.00;102597.47;5115063;28;20456;-36
2023/04/08 09:58:28;;;;;;;15.48;14.10;;;;;;;8.41;100.00;102596.28;5115357;28;20034;-36
2023/04/08 10:00:54;;;;;;;15.20;13.80;;;;;;;8.44;100.00;102606.72;5114767;28;20073;-36
2023/04/08 10:03:30;;;;;;;15.10;13.70;;;;;;;8.52;100.00;102604.00;5115546;28;20035;-36
2023/04/08 10:06:00;;;;;;;15.05;13.63;;;;;;;8.51;100.00;102608.53;5114956;28;20039;-36
2023/04/08 10:08:26;;;;;;;15.38;13.98;;;;;;;8.41;100.00;102594.44;5114861;28;20123;-36
2023/04/08 10:10:53;;;;;;;15.20;13.80;;;;;;;8.49;100.00;102604.31;5114906;28;20023;-36
2023/04/08 10:13:19;;;;;;;14.93;13.57;;;;;;;8.55;100.00;102605.50;5114800;28;20019;-36
2023/04/08 10:15:46;;;;;;;;;;;;;;;8.74;100.00;102605.94;5115782;28;20020;-36
2023/04/08 10:18:13;;;;;;;14.57;13.27;;;;;;;8.81;100.00;102602.50;5114630;28;19994;-36
2023/04/08 10:20:41;;;;;;;15.43;14.02;;;;;;;8.88;100.00;102607.03;5114554;28;20072;-37
2023/04/08 10:23:14;;;;;;;13.98;12.77;;;;;;;8.99;100.00;102603.94;5114568;28;20023;-36
2023/04/08 10:25:47;;;;;;;16.00;14.30;;;;;;;8.88;100.00;102606.19;5114371;28;20031;-36
2023/04/08 10:28:16;;;;;;;15.23;13.88;;;;;;;8.97;100.00;102602.41;5115327;28;20382;-36
2023/04/08 10:30:45;;;;;;;14.95;13.55;;;;;;;9.19;100.00;102601.63;5115052;28;20110;-36
2023/04/08 10:33:20;;;;;;;16.02;14.52;;;;;;;9.28;100.00;102587.03;5114717;28;20073;-37
2023/04/08 10:35:53;;;;;;;14.75;13.45;;;;;;;9.38;100.00;102592.22;5114920;28;20015;-36
2023/04/08 10:38:19;;;;;;;15.32;14.00;;;;;;;9.53;100.00;102592.25;5114374;28;20019;-36
2023/04/08 10:40:46;;;;;;;14.30;13.00;;;;;;;9.56;100.00;102586.47;5114556;28;20359;-36
2023/04/08 10:43:13;;;;;;;14.63;13.32;;;;;;;9.49;100.00;102572.88;5113889;28;20038;-36
2023/04/08 10:45:39;;;;;;;15.00;13.57;;;;;;;9.64;100.00;102572.91;5114531;28;20049;-35
2023/04/08 10:48:12;;;;;;;14.18;12.98;;;;;;;9.96;100.00;102577.16;5113915;28;20028;-36
2023/04/08 10:50:38;;;;;;;13.63;12.43;;;;;;;9.67;100.00;102563.63;5114253;28;20019;-36
2023/04/08 10:53:04;;;;;;;13.90;12.70;;;;;;;10.08;100.00;102572.13;5114161;28;20456;-36
2023/04/08 10:55:30;;;;;;;14.20;13.02;;;;;;;10.21;100.00;102557.97;5114381;28;20023;-35
2023/04/08 10:58:04;;;;;;;15.05;13.65;;;;;;;10.38;100.00;102564.88;5113727;28;20024;-36
2023/04/08 11:00:38;;;;;;;13.98;12.77;;;;;;;10.42;100.00;102552.66;5114397;28;20106;-36
2023/04/08 11:03:05;;;;;;;13.82;12.63;;;;;;;10.64;100.00;102563.53;5114089;28;20046;-36
2023/04/08 11:05:31;;;;;;;13.98;12.77;;;;;;;10.80;100.00;102568.75;5114927;28;20355;-36
2023/04/08 11:07:59;;;;;;;14.65;13.35;;;;;;;10.90;100.00;102574.69;5114012;28;20044;-36